Time;durP1;ratioP1;P1;durP2;ratioP2;P2;SDS_P1;SDS_P2;PMS_P1;PMS_P2;Temp;Humidity;BMP_temperature;BMP_pressure;BME280_temperature;BME280_humidity;BME280_pressure;Samples;Min_cycle;Max_cycle;Signal;HPM_P1;HPM_P2
2022/06/07 00:00:13;;;;;;;29.63;21.17;;;;;;;12.18;100.00;101332.47;5115054;28;20093;-72
2022/06/07 00:02:38;;;;;;;30.13;20.20;;;;;;;12.22;100.00;101321.97;5115291;28;20102;-73
2022/06/07 00:05:04;;;;;;;30.23;21.25;;;;;;;12.22;100.00;101319.34;5115689;28;20145;-73
2022/06/07 00:07:29;;;;;;;31.42;21.88;;;;;;;12.24;100.00;101320.19;5114725;28;20061;-72
2022/06/07 00:09:55;;;;;;;33.45;22.27;;;;;;;12.28;100.00;101325.28;5115389;27;20042;-72
2022/06/07 00:12:21;;;;;;;29.33;21.77;;;;;;;12.30;100.00;101323.53;5115710;27;20044;-72
2022/06/07 00:14:47;;;;;;;33.40;23.55;;;;;;;12.31;100.00;101317.38;5114524;28;20149;-73
2022/06/07 00:17:13;;;;;;;37.08;23.63;;;;;;;12.33;100.00;101312.13;5115526;28;20038;-72
2022/06/07 00:19:39;;;;;;;34.97;23.85;;;;;;;12.34;100.00;101312.09;5115133;27;20433;-72
2022/06/07 00:22:05;;;;;;;34.70;23.55;;;;;;;12.38;100.00;101318.09;5114467;28;20103;-73
2022/06/07 00:24:31;;;;;;;36.08;23.95;;;;;;;12.38;100.00;101313.72;5115188;27;20063;-72
2022/06/07 00:26:56;;;;;;;36.45;24.08;;;;;;;12.36;100.00;101306.81;5115418;27;20100;-72
2022/06/07 00:29:24;;;;;;;35.70;24.95;;;;;;;12.39;100.00;101311.97;5114489;28;20030;-72
2022/06/07 00:31:49;;;;;;;33.97;24.05;;;;;;;12.41;100.00;101304.97;5114854;28;20023;-73
2022/06/07 00:34:15;;;;;;;32.10;23.40;;;;;;;12.40;100.00;101304.09;5115020;28;20107;-72
2022/06/07 00:36:40;;;;;;;35.78;23.70;;;;;;;12.39;100.00;101299.78;5113771;28;20024;-73
2022/06/07 00:39:07;;;;;;;36.60;25.63;;;;;;;12.39;100.00;101291.06;5114771;27;20043;-72
2022/06/07 00:41:33;;;;;;;34.85;23.88;;;;;;;12.36;100.00;101284.16;5114853;28;20058;-73
2022/06/07 00:44:17;;;;;;;35.00;23.58;;;;;;;12.38;100.00;101287.56;5114204;28;20026;-72
2022/06/07 00:46:44;;;;;;;32.58;22.75;;;;;;;12.37;100.00;101277.16;5114562;28;20375;-73
2022/06/07 00:49:12;;;;;;;32.75;22.50;;;;;;;12.32;100.00;101279.88;5113761;27;20035;-72
2022/06/07 00:51:39;;;;;;;28.08;21.35;;;;;;;12.27;100.00;101280.91;5114650;28;20068;-73
2022/06/07 00:54:04;;;;;;;30.55;22.08;;;;;;;12.17;100.00;101282.88;5114424;28;20023;-72
2022/06/07 00:56:30;;;;;;;34.38;21.42;;;;;;;12.07;100.00;101278.75;5113728;28;20048;-72
2022/06/07 00:58:55;;;;;;;31.27;21.38;;;;;;;12.04;100.00;101276.22;5114594;28;20145;-73
2022/06/07 01:01:20;;;;;;;31.73;21.30;;;;;;;12.06;100.00;101279.63;5114542;28;20471;-72
2022/06/07 01:03:46;;;;;;;30.17;20.77;;;;;;;12.08;100.00;101273.47;5113312;28;20046;-73
2022/06/07 01:11:39;;;;;;;26.65;20.40;;;;;;;12.14;100.00;101262.03;5113157;28;20096;-72
2022/06/07 01:14:04;;;;;;;26.55;19.88;;;;;;;12.14;100.00;101273.34;5114242;28;20032;-72
2022/06/07 01:16:29;;;;;;;27.35;18.30;;;;;;;12.12;100.00;101271.66;5114458;28;20027;-72
2022/06/07 01:18:56;;;;;;;24.48;17.48;;;;;;;12.13;100.00;101275.97;5113212;28;20028;-72
2022/06/07 01:21:35;;;;;;;23.73;16.70;;;;;;;12.09;100.00;101267.34;5114248;28;20102;-72
2022/06/07 01:24:00;;;;;;;25.73;16.83;;;;;;;12.07;100.00;101261.31;5114170;28;20053;-73
2022/06/07 01:26:26;;;;;;;26.77;17.05;;;;;;;12.05;100.00;101263.09;5113309;28;20023;-73
2022/06/07 01:28:51;;;;;;;23.20;16.45;;;;;;;12.01;100.00;101260.59;5113701;27;20449;-72
2022/06/07 01:31:17;;;;;;;22.42;16.83;;;;;;;11.99;100.00;101258.00;5113272;28;20027;-73
2022/06/07 01:33:42;;;;;;;23.55;16.38;;;;;;;11.97;100.00;101258.91;5113808;28;20020;-73
2022/06/07 01:36:11;;;;;;;23.05;16.48;;;;;;;11.97;100.00;101257.19;5113968;28;20020;-72
2022/06/07 01:38:38;;;;;;;23.33;16.65;;;;;;;11.98;100.00;101255.44;5112894;28;20023;-72
2022/06/07 01:44:03;;;;;;;19.58;15.52;;;;;;;11.93;100.00;101253.78;5090369;28;20035;-72
2022/06/07 01:46:28;;;;;;;22.52;15.45;;;;;;;11.87;100.00;101259.16;5113013;28;20031;-72
2022/06/07 01:48:53;;;;;;;24.10;15.10;;;;;;;11.77;100.00;101247.16;5113480;28;20023;-72
2022/06/07 01:51:18;;;;;;;23.88;15.93;;;;;;;11.72;100.00;101249.00;5113659;28;20032;-72
2022/06/07 01:53:44;;;;;;;24.40;15.32;;;;;;;11.72;100.00;101246.38;5112398;28;20623;-72
2022/06/07 01:56:13;;;;;;;19.48;14.65;;;;;;;11.69;100.00;101249.06;5113300;28;20250;-72
2022/06/07 01:58:41;;;;;;;23.73;14.35;;;;;;;11.70;100.00;101242.94;5112976;28;20482;-72
2022/06/07 02:01:08;;;;;;;15.93;14.00;;;;;;;11.71;100.00;101239.44;5112853;28;20028;-72
2022/06/07 02:03:34;;;;;;;21.17;13.98;;;;;;;11.76;100.00;101244.56;5113192;28;20081;-72
2022/06/07 02:06:11;;;;;;;17.35;13.25;;;;;;;11.76;100.00;101237.59;5112686;28;20456;-72
2022/06/07 02:08:38;;;;;;;17.45;13.45;;;;;;;11.77;100.00;101238.44;5112535;27;20066;-72
2022/06/07 02:11:08;;;;;;;16.80;12.20;;;;;;;11.80;100.00;101236.63;5113662;28;20023;-72
2022/06/07 02:13:34;;;;;;;17.00;11.70;;;;;;;11.79;100.00;101239.28;5112155;28;20118;-72
2022/06/07 02:15:59;;;;;;;18.45;11.15;;;;;;;11.77;100.00;101234.09;5113124;28;20023;-72
2022/06/07 02:18:24;;;;;;;14.13;10.57;;;;;;;11.77;100.00;101235.81;5113413;28;20059;-72
2022/06/07 02:20:50;;;;;;;14.23;11.02;;;;;;;11.75;100.00;101230.66;5112213;28;20032;-72
2022/06/07 02:23:15;;;;;;;13.93;10.52;;;;;;;11.75;100.00;101224.56;5113079;28;20413;-72
2022/06/07 02:25:50;;;;;;;14.43;10.43;;;;;;;11.76;100.00;101229.75;5113076;28;20059;-73
2022/06/07 02:28:16;;;;;;;13.13;10.13;;;;;;;11.76;100.00;101227.13;5112278;28;20028;-72
2022/06/07 02:30:43;;;;;;;13.35;10.15;;;;;;;11.77;100.00;101225.38;5113021;28;20032;-72
2022/06/07 02:33:09;;;;;;;12.40;9.05;;;;;;;11.80;100.00;101226.16;5113146;28;20035;-72
2022/06/07 02:35:38;;;;;;;13.02;9.02;;;;;;;11.79;100.00;101223.59;5111877;28;20057;-72
2022/06/07 02:38:04;;;;;;;14.25;9.48;;;;;;;11.80;100.00;101228.78;5113249;28;20059;-72
2022/06/07 02:40:30;;;;;;;13.93;8.48;;;;;;;11.81;100.00;101219.22;5113113;28;20063;-72
2022/06/07 02:42:55;;;;;;;13.50;8.73;;;;;;;11.79;100.00;101227.06;5112285;28;20028;-72
2022/06/07 02:45:20;;;;;;;13.20;8.70;;;;;;;11.80;100.00;101218.31;5113059;28;20032;-72
2022/06/07 02:47:46;;;;;;;10.25;8.38;;;;;;;11.79;100.00;101219.22;5112759;28;20023;-72
2022/06/07 02:50:11;;;;;;;12.38;7.53;;;;;;;11.78;100.00;101206.22;5112064;28;20472;-72
2022/06/07 02:52:37;;;;;;;11.80;7.68;;;;;;;11.77;100.00;101210.59;5112870;28;20031;-72
2022/06/07 02:55:03;;;;;;;9.88;6.75;;;;;;;11.76;100.00;101214.06;5112920;28;20048;-72
2022/06/07 02:57:28;;;;;;;8.65;7.15;;;;;;;11.74;100.00;101208.03;5112109;28;20030;-72
2022/06/07 02:59:54;;;;;;;11.30;6.53;;;;;;;11.75;100.00;101207.13;5112489;28;20375;-72
2022/06/07 03:02:19;;;;;;;13.55;7.30;;;;;;;11.69;100.00;101196.81;5112879;28;20023;-72
2022/06/07 03:04:46;;;;;;;12.93;7.35;;;;;;;11.74;100.00;101205.44;5111768;28;20090;-72
2022/06/07 03:07:12;;;;;;;10.18;6.75;;;;;;;11.73;100.00;101207.16;5112998;28;20065;-72
2022/06/07 03:09:37;;;;;;;9.13;6.50;;;;;;;11.72;100.00;101213.28;5111936;28;20379;-72
2022/06/07 03:12:03;;;;;;;9.13;6.47;;;;;;;11.70;100.00;101208.97;5113132;28;20028;-72
2022/06/07 03:14:28;;;;;;;9.93;6.80;;;;;;;11.71;100.00;101218.56;5112824;28;20024;-72
2022/06/07 03:16:53;;;;;;;10.45;6.38;;;;;;;11.61;100.00;101215.28;5111791;28;20092;-72
2022/06/07 03:19:19;;;;;;;8.18;6.28;;;;;;;11.70;100.00;101230.72;5116310;28;20051;-72
2022/06/07 03:21:44;;;;;;;9.82;6.65;;;;;;;11.72;100.00;101228.09;5116537;28;20460;-72
2022/06/07 03:24:09;;;;;;;9.18;6.70;;;;;;;11.71;100.00;101231.63;5115829;28;20024;-72
2022/06/07 03:26:35;;;;;;;14.60;7.03;;;;;;;11.71;100.00;101234.22;5116145;28;20367;-72
2022/06/07 03:29:01;;;;;;;12.32;6.60;;;;;;;11.71;100.00;101240.31;5116446;28;20379;-72
2022/06/07 03:31:26;;;;;;;10.55;6.32;;;;;;;11.71;100.00;101236.84;5115378;28;20490;-72
2022/06/07 03:33:52;;;;;;;9.45;6.15;;;;;;;11.67;100.00;101236.06;5115967;28;20039;-72
2022/06/07 03:36:24;;;;;;;11.63;6.25;;;;;;;11.65;100.00;101236.97;5116491;28;20020;-72
2022/06/07 03:38:50;;;;;;;9.10;5.78;;;;;;;11.68;100.00;101237.75;5115275;28;20110;-72
2022/06/07 03:41:24;;;;;;;10.60;6.25;;;;;;;11.68;100.00;101242.97;5116157;28;20479;-72
2022/06/07 03:43:50;;;;;;;12.13;6.35;;;;;;;11.69;100.00;101236.84;5115788;28;20028;-73
2022/06/07 03:46:21;;;;;;;12.35;6.45;;;;;;;11.68;100.00;101239.53;5115140;28;20092;-73
2022/06/07 03:48:47;;;;;;;7.10;5.38;;;;;;;11.72;100.00;101243.78;5115919;28;20025;-73
2022/06/07 03:51:14;;;;;;;11.65;5.88;;;;;;;11.73;100.00;101246.34;5115802;28;20127;-73
2022/06/07 03:53:40;;;;;;;8.98;6.28;;;;;;;11.76;100.00;101252.41;5114922;28;20088;-72
2022/06/07 03:56:06;;;;;;;9.32;6.13;;;;;;;11.77;100.00;101247.16;5115695;28;20513;-72
2022/06/07 03:58:32;;;;;;;8.30;5.40;;;;;;;11.78;100.00;101246.25;5115600;28;20032;-72
2022/06/07 04:01:00;;;;;;;12.27;6.10;;;;;;;11.82;100.00;101249.66;5114915;28;20023;-72
2022/06/07 04:03:26;;;;;;;8.52;5.40;;;;;;;11.81;100.00;101250.56;5115598;28;20600;-72
2022/06/07 04:05:52;;;;;;;7.22;5.65;;;;;;;11.82;100.00;101255.75;5115262;28;20055;-72
2022/06/07 04:08:18;;;;;;;8.90;6.10;;;;;;;11.86;99.17;101253.94;5115691;28;20068;-72
2022/06/07 04:10:45;;;;;;;9.55;5.93;;;;;;;11.87;100.00;101253.94;5115221;27;20115;-72
2022/06/07 04:13:12;;;;;;;9.10;6.00;;;;;;;11.88;100.00;101262.63;5114684;28;20133;-72
2022/06/07 04:15:37;;;;;;;9.98;6.20;;;;;;;11.88;100.00;101255.63;5115064;28;20023;-73
2022/06/07 04:18:03;;;;;;;12.00;7.13;;;;;;;11.91;100.00;101263.41;5115511;28;20038;-72
2022/06/07 04:20:28;;;;;;;9.98;6.25;;;;;;;11.89;100.00;101246.03;5114946;28;20031;-72
2022/06/07 04:22:53;;;;;;;11.02;6.22;;;;;;;11.92;99.46;101249.44;5115258;28;20032;-73
2022/06/07 04:25:18;;;;;;;16.40;6.55;;;;;;;11.99;100.00;101257.16;5115288;28;20023;-72
2022/06/07 04:27:44;;;;;;;9.43;6.30;;;;;;;12.00;99.10;101254.50;5114165;28;20059;-72
2022/06/07 04:30:10;;;;;;;8.32;6.35;;;;;;;12.06;99.66;101250.88;5114194;28;20028;-72
2022/06/07 04:32:36;;;;;;;11.82;6.28;;;;;;;12.08;98.90;101256.94;5114834;28;20024;-72
2022/06/07 04:35:01;;;;;;;10.23;6.25;;;;;;;12.11;99.26;101254.25;5114476;28;20064;-72
2022/06/07 04:37:26;;;;;;;9.35;6.47;;;;;;;12.15;98.93;101253.28;5115156;28;20054;-72
2022/06/07 04:39:52;;;;;;;8.18;6.95;;;;;;;12.22;98.76;101254.84;5114787;28;20023;-72
2022/06/07 04:42:17;;;;;;;13.38;7.10;;;;;;;12.30;96.55;101258.16;5114134;28;20023;-72
2022/06/07 04:44:42;;;;;;;16.55;7.10;;;;;;;12.35;95.12;101255.41;5114541;28;20502;-72
2022/06/07 04:47:08;;;;;;;11.93;6.90;;;;;;;12.38;95.96;101261.44;5115044;28;20073;-72
2022/06/07 04:49:33;;;;;;;9.65;6.20;;;;;;;12.43;97.04;101261.34;5113726;27;20035;-72
2022/06/07 04:51:59;;;;;;;9.45;6.80;;;;;;;12.46;96.42;101263.00;5114853;28;20055;-72
2022/06/07 04:54:24;;;;;;;12.00;6.95;;;;;;;12.52;95.89;101261.09;5114787;28;20028;-72
2022/06/07 04:56:49;;;;;;;12.85;7.88;;;;;;;12.53;95.87;101268.06;5113476;28;20046;-72
2022/06/07 04:59:14;;;;;;;12.20;6.95;;;;;;;12.53;95.86;101254.13;5114481;28;20114;-72
2022/06/07 05:01:43;;;;;;;13.30;7.22;;;;;;;12.52;96.30;101262.84;5114397;28;20024;-72
2022/06/07 05:04:09;;;;;;;11.32;6.60;;;;;;;12.51;96.73;101268.97;5113942;28;20144;-72
2022/06/07 05:06:37;;;;;;;12.63;7.70;;;;;;;12.47;95.39;101265.59;5114213;28;20088;-73
2022/06/07 05:09:06;;;;;;;11.55;7.18;;;;;;;12.48;95.16;101272.53;5114549;28;20019;-72
2022/06/07 05:11:31;;;;;;;10.13;6.90;;;;;;;12.51;97.11;101266.38;5113344;28;20027;-73
2022/06/07 05:13:59;;;;;;;11.50;7.38;;;;;;;12.53;95.12;101275.06;5114600;28;20042;-72
2022/06/07 05:16:24;;;;;;;9.90;7.07;;;;;;;12.58;96.69;101265.31;5113662;28;20028;-72
2022/06/07 05:18:51;;;;;;;12.13;7.10;;;;;;;12.66;96.21;101266.00;5113978;28;20141;-72
2022/06/07 05:21:16;;;;;;;8.93;6.85;;;;;;;12.78;95.83;101276.13;5114350;28;20028;-72
2022/06/07 05:23:42;;;;;;;9.98;7.00;;;;;;;12.81;94.53;101283.03;5112965;28;20087;-73
2022/06/07 05:26:09;;;;;;;14.52;7.90;;;;;;;12.77;92.74;101274.41;5114065;28;20039;-72
2022/06/07 05:28:37;;;;;;;12.32;7.10;;;;;;;12.83;92.57;101284.72;5114030;28;20024;-73
2022/06/07 05:31:02;;;;;;;10.60;7.15;;;;;;;12.93;92.02;101287.97;5113225;27;20031;-72
2022/06/07 05:33:27;;;;;;;9.25;6.63;;;;;;;13.01;93.38;101277.28;5114221;28;20026;-73
2022/06/07 05:35:53;;;;;;;10.40;7.43;;;;;;;13.12;94.18;101285.72;5113731;28;20023;-72
2022/06/07 05:38:18;;;;;;;13.98;7.45;;;;;;;13.19;93.41;101287.28;5112971;28;20668;-72
2022/06/07 05:40:44;;;;;;;11.30;7.40;;;;;;;13.22;92.92;101283.72;5113577;28;20084;-72
2022/06/07 05:43:13;;;;;;;11.55;7.20;;;;;;;13.28;92.36;101284.44;5113734;28;20034;-73
2022/06/07 05:45:39;;;;;;;13.15;7.97;;;;;;;13.31;92.23;101275.66;5112762;28;20085;-73
2022/06/07 05:48:05;;;;;;;9.18;7.82;;;;;;;13.29;90.49;101288.78;5113745;28;20456;-73
2022/06/07 05:50:30;;;;;;;11.85;7.78;;;;;;;13.24;90.94;101274.97;5113363;28;20032;-72
2022/06/07 05:52:55;;;;;;;10.88;7.53;;;;;;;13.17;92.44;101269.88;5112850;27;20023;-73
2022/06/07 05:55:21;;;;;;;15.88;8.43;;;;;;;13.18;91.27;101280.34;5113235;28;20048;-72
2022/06/07 05:57:50;;;;;;;13.65;8.35;;;;;;;13.13;91.67;101277.81;5113480;28;20023;-73
2022/06/07 06:00:19;;;;;;;10.43;8.30;;;;;;;13.14;91.99;101276.06;5112814;28;20027;-72
2022/06/07 06:02:44;;;;;;;14.88;9.23;;;;;;;13.16;91.94;101276.88;5113350;28;20028;-73
2022/06/07 06:05:10;;;;;;;14.05;8.20;;;;;;;13.21;93.93;101288.09;5113422;28;20096;-73
2022/06/07 06:07:36;;;;;;;12.32;9.07;;;;;;;13.25;91.73;101284.53;5112310;28;20114;-72
2022/06/07 06:10:20;;;;;;;14.70;9.38;;;;;;;13.30;92.27;101285.25;5113284;28;20058;-72
2022/06/07 06:12:45;;;;;;;;;;;;;;;13.42;93.24;101285.81;5112005;28;20398;-72
2022/06/07 06:15:10;;;;;;;15.90;9.10;;;;;;;13.51;91.87;101278.56;5113567;28;19912;-72
2022/06/07 06:17:36;;;;;;;12.70;9.18;;;;;;;13.63;92.94;101274.72;5113078;28;20028;-72
2022/06/07 06:20:01;;;;;;;14.68;9.32;;;;;;;13.75;89.18;101284.84;5112727;28;20510;-73
2022/06/07 06:22:27;;;;;;;14.48;9.35;;;;;;;13.81;91.32;101289.91;5113094;28;20023;-73
2022/06/07 06:24:55;;;;;;;19.42;9.30;;;;;;;13.96;91.42;101288.59;5112825;28;20019;-72
2022/06/07 06:27:21;;;;;;;12.23;9.43;;;;;;;14.06;90.54;101276.06;5112427;28;20469;-72
2022/06/07 06:29:46;;;;;;;16.60;9.80;;;;;;;14.23;90.95;101272.91;5113025;28;20035;-72
2022/06/07 06:32:11;;;;;;;16.73;10.32;;;;;;;14.36;88.14;101286.50;5113363;28;20076;-73
2022/06/07 06:34:37;;;;;;;19.98;9.20;;;;;;;14.47;91.89;101276.50;5112145;28;20494;-73
2022/06/07 06:37:02;;;;;;;13.75;9.45;;;;;;;14.64;90.63;101284.69;5113157;28;20093;-73
2022/06/07 06:39:29;;;;;;;12.32;9.20;;;;;;;14.74;86.64;101274.75;5113017;28;20482;-72
2022/06/07 06:41:54;;;;;;;13.88;9.73;;;;;;;14.77;86.62;101279.03;5112183;28;20483;-72
2022/06/07 06:44:19;;;;;;;11.70;8.82;;;;;;;14.77;85.14;101279.03;5113201;28;20098;-72
2022/06/07 06:46:47;;;;;;;13.52;9.45;;;;;;;14.68;86.06;101278.44;5112790;28;20494;-73
2022/06/07 06:49:13;;;;;;;14.25;8.65;;;;;;;14.66;86.83;101280.25;5112249;28;20072;-73
2022/06/07 06:51:41;;;;;;;16.25;8.75;;;;;;;14.56;88.22;101278.84;5112545;28;20043;-73
2022/06/07 06:54:07;;;;;;;17.25;9.65;;;;;;;14.44;88.12;101273.97;5116757;28;20020;-72
2022/06/07 06:56:33;;;;;;;16.15;9.68;;;;;;;14.48;89.11;101284.31;5115786;28;20043;-72
2022/06/07 06:58:59;;;;;;;14.43;10.38;;;;;;;14.55;89.46;101290.25;5116918;28;20015;-72
2022/06/07 07:01:31;;;;;;;15.70;10.05;;;;;;;14.66;88.23;101290.75;5117188;28;20023;-73
2022/06/07 07:03:58;;;;;;;17.25;12.07;;;;;;;14.82;87.46;101301.59;5116482;28;20443;-73
2022/06/07 07:06:24;;;;;;;15.32;11.70;;;;;;;15.01;87.06;101296.59;5116777;28;20463;-73
2022/06/07 07:08:50;;;;;;;18.23;11.93;;;;;;;15.29;87.16;101298.22;5115635;28;20023;-73
2022/06/07 07:11:25;;;;;;;18.23;11.10;;;;;;;15.53;86.18;101296.47;5116556;28;20026;-73
2022/06/07 07:13:52;;;;;;;16.25;11.02;;;;;;;15.67;87.44;101289.84;5116436;28;20030;-73
2022/06/07 07:16:21;;;;;;;16.05;11.40;;;;;;;15.74;84.61;101294.88;5115828;28;20055;-72
2022/06/07 07:18:47;;;;;;;18.08;11.90;;;;;;;15.86;82.91;101299.66;5116328;28;20034;-72
2022/06/07 07:21:19;;;;;;;19.08;12.20;;;;;;;15.73;83.45;101285.25;5116761;28;20098;-73
2022/06/07 07:23:45;;;;;;;15.65;12.40;;;;;;;15.55;84.49;101290.25;5115498;28;20028;-73
2022/06/07 07:26:13;;;;;;;19.98;12.52;;;;;;;15.51;85.83;101295.69;5116477;28;20016;-73
2022/06/07 07:28:40;;;;;;;18.50;13.30;;;;;;;15.63;85.74;101287.31;5116101;28;20429;-73
2022/06/07 07:31:09;;;;;;;18.73;12.63;;;;;;;15.75;87.36;101289.53;5115637;28;20053;-73
2022/06/07 07:33:35;;;;;;;18.30;12.77;;;;;;;16.09;86.22;101285.63;5115989;28;20054;-73
2022/06/07 07:36:04;;;;;;;20.02;13.77;;;;;;;16.40;85.20;101274.72;5116461;28;20515;-73
2022/06/07 07:38:29;;;;;;;17.48;13.05;;;;;;;16.72;84.95;101285.69;5115552;28;20024;-73
2022/06/07 07:40:54;;;;;;;20.58;12.60;;;;;;;16.87;84.66;101279.78;5116058;28;20022;-72
2022/06/07 07:43:20;;;;;;;17.30;13.25;;;;;;;17.00;82.79;101275.75;5116125;28;20475;-73
2022/06/07 07:45:49;;;;;;;19.63;12.90;;;;;;;17.08;82.44;101281.50;5114986;27;20066;-73
2022/06/07 07:48:16;;;;;;;18.58;13.02;;;;;;;16.90;81.68;101269.13;5116209;28;20059;-73
2022/06/07 07:50:41;;;;;;;17.60;12.52;;;;;;;16.75;82.04;101269.81;5115891;27;20094;-73
2022/06/07 07:53:06;;;;;;;17.83;11.85;;;;;;;16.72;82.71;101281.28;5115297;28;20036;-73
2022/06/07 07:55:32;;;;;;;16.98;12.65;;;;;;;16.61;83.29;101276.47;5115337;28;20054;-73
2022/06/07 07:57:57;;;;;;;16.63;11.65;;;;;;;16.45;82.91;101278.03;5115554;28;20064;-73
2022/06/07 08:00:23;;;;;;;19.35;13.02;;;;;;;16.29;82.67;101282.19;5115318;28;20024;-81
2022/06/07 08:02:49;;;;;;;18.10;11.63;;;;;;;16.26;84.76;101280.53;5115370;28;20456;-73
2022/06/07 08:05:14;;;;;;;19.55;13.50;;;;;;;16.27;83.28;101284.03;5114003;28;20026;-73
2022/06/07 08:07:40;;;;;;;15.98;12.60;;;;;;;16.36;81.04;101279.25;5115567;28;20024;-73
2022/06/07 08:10:05;;;;;;;21.85;13.48;;;;;;;16.57;81.42;101274.88;5115596;28;20501;-73
2022/06/07 08:12:31;;;;;;;17.63;11.45;;;;;;;16.74;82.57;101278.56;5114972;28;20448;-73
2022/06/07 08:14:58;;;;;;;14.27;11.18;;;;;;;16.77;83.18;101281.13;5115476;28;20086;-73
2022/06/07 08:17:25;;;;;;;15.32;10.63;;;;;;;16.99;82.37;101273.16;5115646;28;20024;-73
2022/06/07 08:19:51;;;;;;;14.50;11.57;;;;;;;17.32;79.75;101278.72;5114502;28;20023;-73
2022/06/07 08:22:16;;;;;;;14.68;12.00;;;;;;;17.68;75.06;101264.78;5115503;28;20030;-73
2022/06/07 08:24:42;;;;;;;12.68;9.43;;;;;;;17.90;77.92;101262.03;5115098;28;20022;-73
2022/06/07 08:27:08;;;;;;;13.73;9.57;;;;;;;18.39;72.65;101268.44;5114456;28;20031;-73
2022/06/07 08:29:33;;;;;;;10.90;8.70;;;;;;;18.45;74.93;101265.50;5114762;28;20024;-73
2022/06/07 08:31:59;;;;;;;12.38;10.13;;;;;;;18.66;72.65;101274.13;5115370;28;20481;-73
2022/06/07 08:39:53;;;;;;;12.05;7.95;;;;;;;19.15;70.10;101262.84;5114823;28;20035;-73
2022/06/07 08:42:37;;;;;;;10.00;7.45;;;;;;;19.07;72.96;101262.41;5114175;28;20023;-73
2022/06/07 08:45:11;;;;;;;11.50;7.53;;;;;;;18.95;72.33;101266.53;5114930;28;20076;-73
2022/06/07 08:48:00;;;;;;;7.22;6.03;;;;;;;18.65;72.58;101267.13;5113783;28;20141;-73
2022/06/07 08:50:34;;;;;;;8.80;7.35;;;;;;;18.39;71.39;101270.22;5114646;28;20071;-73
2022/06/07 08:53:09;;;;;;;13.68;8.60;;;;;;;18.17;74.87;101271.25;5115177;28;20034;-73
2022/06/07 08:55:45;;;;;;;13.68;8.63;;;;;;;18.05;74.02;101269.25;5113363;28;20043;-73
2022/06/07 08:58:35;;;;;;;13.65;9.10;;;;;;;18.02;72.27;101264.97;5114687;28;20035;-73
2022/06/07 09:01:17;;;;;;;9.70;7.95;;;;;;;18.19;73.86;101279.13;5114651;28;20053;-73
2022/06/07 09:04:14;;;;;;;12.63;9.18;;;;;;;18.22;74.88;101277.19;5114399;28;20031;-73
2022/06/07 09:06:44;;;;;;;11.80;9.35;;;;;;;18.24;72.27;101270.03;5114322;28;20074;-73
2022/06/07 09:09:11;;;;;;;13.00;8.75;;;;;;;18.13;71.22;101261.78;5113625;28;20020;-73
2022/06/07 09:12:14;;;;;;;10.98;8.55;;;;;;;18.29;73.96;101258.41;5114273;28;20034;-73
2022/06/07 09:14:49;;;;;;;11.15;7.93;;;;;;;18.29;74.55;101264.53;5114089;28;20525;-73
2022/06/07 09:17:28;;;;;;;12.73;8.63;;;;;;;18.50;72.04;101259.97;5113365;28;20027;-73
2022/06/07 09:19:54;;;;;;;9.02;6.97;;;;;;;18.84;71.68;101264.47;5113871;28;20031;-73
2022/06/07 09:22:25;;;;;;;7.40;6.57;;;;;;;18.92;67.62;101256.13;5114509;28;20019;-73
2022/06/07 09:25:03;;;;;;;7.95;6.93;;;;;;;19.08;69.85;101259.69;5114172;28;20076;-73
2022/06/07 09:27:32;;;;;;;9.30;6.18;;;;;;;19.45;69.67;101255.06;5114128;28;20471;-73
2022/06/07 09:30:02;;;;;;;6.68;5.38;;;;;;;19.85;67.40;101253.78;5113150;28;20439;-73
2022/06/07 09:32:32;;;;;;;9.65;6.05;;;;;;;20.25;64.84;101242.75;5114211;28;20020;-73
2022/06/07 09:35:15;;;;;;;10.10;5.57;;;;;;;20.41;60.99;101240.91;5114157;28;20024;-73
2022/06/07 09:38:19;;;;;;;6.97;5.30;;;;;;;20.31;65.41;101247.69;5113015;28;20024;-73
2022/06/07 09:40:56;;;;;;;5.93;5.32;;;;;;;20.06;63.59;101256.16;5113758;28;20027;-73
2022/06/07 09:43:28;;;;;;;9.88;5.15;;;;;;;20.07;62.91;101250.75;5113940;28;20024;-73
2022/06/07 09:45:57;;;;;;;7.25;5.38;;;;;;;20.14;64.79;101255.72;5113497;28;20081;-73
2022/06/07 09:48:36;;;;;;;7.32;5.53;;;;;;;20.19;66.65;101249.22;5113844;28;20023;-73
2022/06/07 09:51:13;;;;;;;9.00;6.80;;;;;;;20.20;65.06;101255.38;5112917;28;20126;-73
2022/06/07 09:53:45;;;;;;;9.80;6.25;;;;;;;20.09;61.14;101248.91;5113537;28;20040;-73
2022/06/07 09:56:20;;;;;;;10.68;5.93;;;;;;;20.32;64.29;101247.59;5113539;28;20052;-73
2022/06/07 09:58:51;;;;;;;7.28;5.90;;;;;;;20.64;62.87;101244.88;5112588;28;20084;-73
2022/06/07 10:01:32;;;;;;;6.93;5.60;;;;;;;21.07;60.07;101247.59;5113456;28;20027;-73
2022/06/07 10:04:29;;;;;;;8.18;5.30;;;;;;;21.11;61.38;101235.84;5113688;28;20031;-73
2022/06/07 10:07:04;;;;;;;6.72;5.30;;;;;;;21.32;57.91;101246.06;5094388;28;20471;-73
2022/06/07 10:10:00;;;;;;;5.32;4.30;;;;;;;21.14;57.89;101205.66;5113349;28;20050;-73
2022/06/07 10:12:37;;;;;;;6.95;3.90;;;;;;;21.28;58.64;101238.31;5088817;28;20118;-73
2022/06/07 10:15:30;;;;;;;5.18;4.00;;;;;;;21.30;59.28;101238.22;5113399;28;20030;-73
2022/06/07 10:18:21;;;;;;;5.80;3.87;;;;;;;21.36;54.82;101237.03;5113308;28;20032;-73
2022/06/07 10:20:58;;;;;;;8.15;3.60;;;;;;;21.52;58.23;101232.47;5112421;28;20110;-73
2022/06/07 10:24:00;;;;;;;8.30;4.03;;;;;;;21.98;59.89;101221.56;5113249;28;20031;-73
2022/06/07 10:26:57;;;;;;;7.93;5.32;;;;;;;22.29;56.26;101217.75;5112296;28;20053;-73
2022/06/07 10:29:51;;;;;;;8.57;4.72;;;;;;;22.42;57.95;101223.09;5113291;28;20023;-73
2022/06/07 10:32:31;;;;;;;5.88;4.05;;;;;;;22.20;56.26;101226.31;5113095;28;20472;-73
2022/06/07 10:35:11;;;;;;;5.43;3.67;;;;;;;21.83;57.21;101228.69;5112478;28;20036;-73
2022/06/07 10:38:08;;;;;;;5.47;3.70;;;;;;;21.61;59.01;101225.72;5113075;28;20028;-73
2022/06/07 10:40:41;;;;;;;6.40;4.20;;;;;;;21.17;57.04;101235.47;5112178;28;20026;-73
2022/06/07 10:43:47;;;;;;;9.25;4.40;;;;;;;21.10;59.75;101228.00;5113336;28;20106;-73
2022/06/07 10:46:16;;;;;;;6.97;3.53;;;;;;;21.05;59.63;101229.13;5113672;28;20020;-73
2022/06/07 10:49:02;;;;;;;7.85;3.60;;;;;;;21.31;57.93;101229.31;5111997;28;20028;-73
2022/06/07 10:54:47;;;;;;;5.68;3.00;;;;;;;21.99;53.29;101220.59;5112457;28;20034;-73
2022/06/07 10:57:22;;;;;;;5.75;2.80;;;;;;;22.25;54.61;101212.75;5108826;28;20044;-73
2022/06/07 10:59:50;;;;;;;11.07;3.53;;;;;;;22.35;53.33;101217.34;5112609;28;20034;-73
2022/06/07 11:02:26;;;;;;;6.07;3.55;;;;;;;22.65;53.09;101203.78;5112069;28;20425;-73
2022/06/07 11:10:59;;;;;;;5.13;2.75;;;;;;;23.06;51.84;101217.88;5112961;28;20102;-73
2022/06/07 11:13:33;;;;;;;6.65;2.85;;;;;;;23.62;49.80;101204.13;5112920;28;20032;-73
2022/06/07 11:16:11;;;;;;;5.95;2.63;;;;;;;24.33;49.04;101210.44;5112253;28;20020;-73
2022/06/07 11:18:40;;;;;;;4.97;2.85;;;;;;;24.56;48.68;101212.25;5112785;28;20187;-73
2022/06/07 11:21:06;;;;;;;5.18;2.35;;;;;;;24.61;46.82;101214.56;5113082;28;20044;-73
2022/06/07 11:23:46;;;;;;;5.93;2.10;;;;;;;24.64;47.45;101216.97;5111589;28;20027;-73
2022/06/07 11:26:15;;;;;;;9.88;2.58;;;;;;;24.57;48.64;101213.94;5112884;28;20023;-73
2022/06/07 11:28:40;;;;;;;5.00;2.38;;;;;;;24.58;48.96;101215.63;5112192;28;20364;-73
2022/06/07 11:31:25;;;;;;;3.33;2.07;;;;;;;24.60;49.88;101207.53;5111735;28;20038;-73
2022/06/07 11:33:50;;;;;;;3.25;1.75;;;;;;;25.19;47.62;101202.03;5112480;28;20281;-73
2022/06/07 11:36:25;;;;;;;3.37;1.93;;;;;;;25.67;46.26;101204.41;5111909;28;20356;-73
2022/06/07 11:38:56;;;;;;;3.50;1.60;;;;;;;26.17;47.39;101207.41;5113635;28;20098;-73
2022/06/07 11:41:36;;;;;;;4.47;1.80;;;;;;;26.51;45.47;101215.28;5116159;28;20076;-74
2022/06/07 11:44:03;;;;;;;2.95;2.17;;;;;;;26.18;44.12;101208.25;5115574;28;20019;-73
2022/06/07 11:46:34;;;;;;;2.47;2.00;;;;;;;25.80;43.16;101220.25;5116220;28;20020;-73